Time;durP1;ratioP1;P1;durP2;ratioP2;P2;SDS_P1;SDS_P2;PMS_P1;PMS_P2;Temp;Humidity;BMP_temperature;BMP_pressure;BME280_temperature;BME280_humidity;BME280_pressure;Samples;Min_cycle;Max_cycle;Signal;HPM_P1;HPM_P2
2022/06/09 00:01:43;;;;;;;0.10;0.10;;;;;;;;;;5033611;28;20468;-86
2022/06/09 00:04:24;;;;;;;0.05;0.05;;;;;;;;;;5030136;28;20041;-87
2022/06/09 00:07:11;;;;;;;0.20;0.20;;;;;;;;;;5023552;28;20459;-87
2022/06/09 00:09:43;;;;;;;0.10;0.10;;;;;;;;;;5033916;28;20033;-86
2022/06/09 00:12:09;;;;;;;0.30;0.30;;;;;;;;;;5038472;28;20044;-88
2022/06/09 00:14:36;;;;;;;0.10;0.10;;;;;;;;;;5055545;28;20047;-86
2022/06/09 00:17:02;;;;;;;0.20;0.20;;;;;;;;;;5026585;28;20124;-90
2022/06/09 00:19:31;;;;;;;0.10;0.10;;;;;;;;;;5052491;28;20033;-87
2022/06/09 00:21:57;;;;;;;0.20;0.20;;;;;;;;;;5036893;28;20547;-87
2022/06/09 00:24:23;;;;;;;0.10;0.10;;;;;;;;;;5037066;28;20405;-87
2022/06/09 00:26:49;;;;;;;0.10;0.10;;;;;;;;;;5035925;28;20040;-88
2022/06/09 00:29:15;;;;;;;0.00;0.00;;;;;;;;;;5036259;28;20040;-87
2022/06/09 00:31:41;;;;;;;0.10;0.10;;;;;;;;;;5043079;28;20047;-88
2022/06/09 00:34:07;;;;;;;0.10;0.10;;;;;;;;;;5036953;28;20131;-87
2022/06/09 00:36:33;;;;;;;0.10;0.10;;;;;;;;;;5023503;28;20076;-89
2022/06/09 00:38:59;;;;;;;0.30;0.30;;;;;;;;;;5034376;28;20124;-88
2022/06/09 00:41:26;;;;;;;0.20;0.20;;;;;;;;;;5043672;28;20045;-87
2022/06/09 00:43:52;;;;;;;0.30;0.30;;;;;;;;;;5041987;28;20036;-90
2022/06/09 00:46:20;;;;;;;0.10;0.10;;;;;;;;;;5030122;28;20473;-88
2022/06/09 00:48:46;;;;;;;0.03;0.03;;;;;;;;;;5026581;28;20076;-90
2022/06/09 00:51:25;;;;;;;0.10;0.10;;;;;;;;;;5023803;28;20037;-91
2022/06/09 00:53:54;;;;;;;0.00;0.00;;;;;;;;;;5034905;28;20037;-87
2022/06/09 00:56:21;;;;;;;0.10;0.10;;;;;;;;;;5028217;28;20045;-86
2022/06/09 00:58:48;;;;;;;0.20;0.20;;;;;;;;;;5032815;28;20198;-88
2022/06/09 01:01:16;;;;;;;0.20;0.20;;;;;;;;;;5059131;28;20041;-88
2022/06/09 01:03:49;;;;;;;0.10;0.10;;;;;;;;;;5041913;28;20040;-87
2022/06/09 01:06:18;;;;;;;0.15;0.15;;;;;;;;;;5041633;28;20036;-87
2022/06/09 01:08:46;;;;;;;0.10;0.10;;;;;;;;;;5041789;28;20440;-88
2022/06/09 01:11:12;;;;;;;0.28;0.28;;;;;;;;;;5043721;28;20044;-87
2022/06/09 01:13:38;;;;;;;0.08;0.08;;;;;;;;;;5022406;28;20049;-88
2022/06/09 01:16:11;;;;;;;0.10;0.10;;;;;;;;;;5028021;28;20383;-87
2022/06/09 01:18:45;;;;;;;0.10;0.10;;;;;;;;;;5029678;28;20075;-87
2022/06/09 01:21:12;;;;;;;0.10;0.10;;;;;;;;;;5041451;28;20127;-88
2022/06/09 01:23:48;;;;;;;0.20;0.20;;;;;;;;;;5033035;28;20033;-87
2022/06/09 01:26:23;;;;;;;0.20;0.20;;;;;;;;;;5034696;28;20052;-88
2022/06/09 01:28:58;;;;;;;0.10;0.10;;;;;;;;;;5038315;28;20079;-87
2022/06/09 01:31:36;;;;;;;0.10;0.10;;;;;;;;;;5041273;28;20041;-87
2022/06/09 01:34:20;;;;;;;0.13;0.13;;;;;;;;;;5052045;28;20591;-87
2022/06/09 01:37:19;;;;;;;0.10;0.10;;;;;;;;;;5028073;28;20093;-88
2022/06/09 01:39:53;;;;;;;0.32;0.32;;;;;;;;;;4998149;28;20452;-88
2022/06/09 01:42:24;;;;;;;0.13;0.13;;;;;;;;;;5040983;28;20068;-87
2022/06/09 01:44:52;;;;;;;0.17;0.17;;;;;;;;;;5044049;28;20132;-87
2022/06/09 01:47:20;;;;;;;0.10;0.10;;;;;;;;;;5056876;28;20048;-87
2022/06/09 01:49:47;;;;;;;0.10;0.10;;;;;;;;;;5035007;28;20036;-88
2022/06/09 01:52:13;;;;;;;0.20;0.20;;;;;;;;;;5040871;28;20433;-87
2022/06/09 01:54:40;;;;;;;0.10;0.10;;;;;;;;;;5040481;28;20047;-87
2022/06/09 01:57:17;;;;;;;0.30;0.30;;;;;;;;;;5034196;28;20501;-88
2022/06/09 01:59:46;;;;;;;0.10;0.10;;;;;;;;;;5022037;28;20040;-87
2022/06/09 02:02:16;;;;;;;0.20;0.20;;;;;;;;;;5039123;28;20041;-87
2022/06/09 02:04:53;;;;;;;0.10;0.10;;;;;;;;;;5030780;28;20044;-89
2022/06/09 02:07:22;;;;;;;0.10;0.10;;;;;;;;;;5037455;28;20052;-89
2022/06/09 02:09:48;;;;;;;0.05;0.05;;;;;;;;;;5023626;28;20051;-86
2022/06/09 02:12:15;;;;;;;0.10;0.10;;;;;;;;;;5040327;28;20083;-87
2022/06/09 02:14:46;;;;;;;0.20;0.20;;;;;;;;;;5038305;28;20044;-87
2022/06/09 02:17:12;;;;;;;0.20;0.20;;;;;;;;;;5020743;28;20128;-86
2022/06/09 02:19:39;;;;;;;0.17;0.17;;;;;;;;;;5031245;28;20040;-86
2022/06/09 02:22:06;;;;;;;0.10;0.10;;;;;;;;;;5041210;28;20041;-86
2022/06/09 02:24:32;;;;;;;0.10;0.10;;;;;;;;;;5024415;28;20401;-87
2022/06/09 02:26:59;;;;;;;0.10;0.10;;;;;;;;;;5029948;28;20032;-87
2022/06/09 02:29:25;;;;;;;0.03;0.03;;;;;;;;;;5033830;28;20041;-87
2022/06/09 02:31:51;;;;;;;0.10;0.10;;;;;;;;;;5041115;28;20127;-87
2022/06/09 02:34:17;;;;;;;0.17;0.17;;;;;;;;;;5032583;28;20110;-86
2022/06/09 02:36:44;;;;;;;0.10;0.10;;;;;;;;;;5029379;28;20131;-88
2022/06/09 02:39:10;;;;;;;0.20;0.20;;;;;;;;;;5039282;28;20044;-91
2022/06/09 02:41:37;;;;;;;0.13;0.13;;;;;;;;;;5038721;28;20554;-90
2022/06/09 02:44:03;;;;;;;0.10;0.10;;;;;;;;;;5020941;28;20087;-88
2022/06/09 02:46:31;;;;;;;0.20;0.20;;;;;;;;;;5039477;28;20106;-87
2022/06/09 02:48:57;;;;;;;0.15;0.15;;;;;;;;;;5041868;28;20116;-87
2022/06/09 02:51:23;;;;;;;0.10;0.10;;;;;;;;;;5027410;28;20509;-87
2022/06/09 02:53:49;;;;;;;0.00;0.00;;;;;;;;;;5024584;28;20041;-88
2022/06/09 02:56:16;;;;;;;0.20;0.20;;;;;;;;;;5032672;28;20045;-87
2022/06/09 02:58:42;;;;;;;0.20;0.20;;;;;;;;;;5056048;28;20075;-87
2022/06/09 03:01:08;;;;;;;0.22;0.22;;;;;;;;;;5040566;28;20074;-87
2022/06/09 03:03:34;;;;;;;0.10;0.10;;;;;;;;;;5042968;28;20040;-87
2022/06/09 03:06:00;;;;;;;0.08;0.08;;;;;;;;;;5032906;28;20162;-87
2022/06/09 03:08:26;;;;;;;0.13;0.13;;;;;;;;;;5032859;28;20383;-87
2022/06/09 03:10:52;;;;;;;0.10;0.10;;;;;;;;;;5039599;28;20044;-87
2022/06/09 03:13:18;;;;;;;0.30;0.30;;;;;;;;;;5021163;28;20033;-85
2022/06/09 03:15:47;;;;;;;0.13;0.13;;;;;;;;;;5032255;28;20054;-86
2022/06/09 03:18:13;;;;;;;0.10;0.10;;;;;;;;;;5032892;28;20484;-86
2022/06/09 03:20:39;;;;;;;0.10;0.10;;;;;;;;;;5027056;28;20041;-85
2022/06/09 03:23:05;;;;;;;0.10;0.10;;;;;;;;;;5032122;28;20041;-85
2022/06/09 03:25:31;;;;;;;0.10;0.10;;;;;;;;;;5039374;28;20047;-86
2022/06/09 03:27:57;;;;;;;0.17;0.17;;;;;;;;;;5026577;28;20493;-87
2022/06/09 03:30:23;;;;;;;0.08;0.08;;;;;;;;;;5036196;28;20091;-86
2022/06/09 03:32:50;;;;;;;0.20;0.20;;;;;;;;;;5020280;28;20083;-87
2022/06/09 03:35:16;;;;;;;0.10;0.10;;;;;;;;;;5037280;28;20072;-87
2022/06/09 03:37:42;;;;;;;0.10;0.10;;;;;;;;;;5023424;28;20052;-87
2022/06/09 03:40:11;;;;;;;0.08;0.08;;;;;;;;;;5023149;28;20079;-86
2022/06/09 03:42:37;;;;;;;0.00;0.00;;;;;;;;;;5030202;28;20045;-88
2022/06/09 03:45:03;;;;;;;0.10;0.10;;;;;;;;;;5030253;28;20123;-87
2022/06/09 03:47:29;;;;;;;0.00;0.00;;;;;;;;;;5023021;28;20042;-87
2022/06/09 03:49:55;;;;;;;0.10;0.10;;;;;;;;;;5039004;28;20041;-88
2022/06/09 03:52:21;;;;;;;0.10;0.10;;;;;;;;;;5035741;28;20044;-87
2022/06/09 03:54:47;;;;;;;0.10;0.10;;;;;;;;;;5035128;28;20049;-86
2022/06/09 03:57:13;;;;;;;0.15;0.15;;;;;;;;;;5026228;28;20045;-87
2022/06/09 03:59:39;;;;;;;0.10;0.10;;;;;;;;;;5030506;28;20052;-87
2022/06/09 04:02:05;;;;;;;0.00;0.00;;;;;;;;;;5043719;28;20045;-87
2022/06/09 04:04:31;;;;;;;0.10;0.10;;;;;;;;;;5042900;28;20048;-88
2022/06/09 04:06:58;;;;;;;0.10;0.10;;;;;;;;;;5036319;28;20037;-87
2022/06/09 04:09:24;;;;;;;0.20;0.20;;;;;;;;;;5040300;28;20036;-87
2022/06/09 04:11:50;;;;;;;0.10;0.10;;;;;;;;;;5039532;28;20037;-87
2022/06/09 04:14:16;;;;;;;0.10;0.10;;;;;;;;;;5051787;28;20055;-87
2022/06/09 04:16:46;;;;;;;0.10;0.10;;;;;;;;;;5038125;28;20037;-89
2022/06/09 04:19:17;;;;;;;0.10;0.10;;;;;;;;;;5038816;28;20041;-87
2022/06/09 04:21:43;;;;;;;0.17;0.17;;;;;;;;;;5059761;28;20555;-87
2022/06/09 04:24:10;;;;;;;0.10;0.10;;;;;;;;;;5056335;28;20033;-87
2022/06/09 04:26:37;;;;;;;0.20;0.20;;;;;;;;;;5036334;28;20165;-88
2022/06/09 04:29:06;;;;;;;0.10;0.10;;;;;;;;;;5038980;28;20090;-87
2022/06/09 04:31:32;;;;;;;0.10;0.10;;;;;;;;;;5032562;28;20051;-87
2022/06/09 04:33:58;;;;;;;0.10;0.10;;;;;;;;;;5036744;28;20413;-88
2022/06/09 04:36:25;;;;;;;0.10;0.10;;;;;;;;;;5057690;28;20040;-89
2022/06/09 04:38:52;;;;;;;0.08;0.08;;;;;;;;;;5042972;28;20036;-87
2022/06/09 04:41:18;;;;;;;0.00;0.00;;;;;;;;;;5036348;28;20041;-86
2022/06/09 04:43:46;;;;;;;0.20;0.20;;;;;;;;;;5042304;28;20114;-88
2022/06/09 04:46:13;;;;;;;0.00;0.00;;;;;;;;;;5042348;28;20044;-87
2022/06/09 04:48:40;;;;;;;0.10;0.10;;;;;;;;;;5019485;28;20054;-87
2022/06/09 04:51:11;;;;;;;0.17;0.17;;;;;;;;;;5032525;28;20040;-88
2022/06/09 04:53:38;;;;;;;0.10;0.10;;;;;;;;;;5036973;28;20458;-87
2022/06/09 04:56:04;;;;;;;0.10;0.10;;;;;;;;;;5041591;28;20033;-89
2022/06/09 04:58:31;;;;;;;0.10;0.10;;;;;;;;;;5028152;28;20090;-91
2022/06/09 05:00:57;;;;;;;0.10;0.10;;;;;;;;;;5037240;28;20090;-90
2022/06/09 05:03:23;;;;;;;0.20;0.20;;;;;;;;;;5033576;28;20041;-85
2022/06/09 05:05:50;;;;;;;0.10;0.10;;;;;;;;;;5039599;28;20043;-86
2022/06/09 05:08:17;;;;;;;0.10;0.10;;;;;;;;;;5039965;28;20123;-89
2022/06/09 05:10:44;;;;;;;0.15;0.15;;;;;;;;;;5041269;28;20043;-89
2022/06/09 05:13:12;;;;;;;0.00;0.00;;;;;;;;;;5034494;28;20037;-87
2022/06/09 05:15:45;;;;;;;0.20;0.20;;;;;;;;;;5034118;28;20131;-87
2022/06/09 05:18:11;;;;;;;0.20;0.20;;;;;;;;;;5036875;28;20120;-86
2022/06/09 05:20:37;;;;;;;0.08;0.08;;;;;;;;;;5039334;28;20044;-90
2022/06/09 05:23:03;;;;;;;0.10;0.10;;;;;;;;;;5035576;28;20032;-86
2022/06/09 05:25:29;;;;;;;0.08;0.08;;;;;;;;;;5035973;28;20387;-86
2022/06/09 05:27:55;;;;;;;0.10;0.10;;;;;;;;;;5038050;28;20067;-88
2022/06/09 05:30:22;;;;;;;0.20;0.20;;;;;;;;;;5034807;28;20490;-87
2022/06/09 05:32:49;;;;;;;0.10;0.10;;;;;;;;;;5028947;28;20047;-87
2022/06/09 05:35:15;;;;;;;0.10;0.10;;;;;;;;;;5051325;28;20032;-92
2022/06/09 05:45:57;;;;;;;;;;;;;;;;;;5056163;28;20456;-85
2022/06/09 05:48:23;;;;;;;0.10;0.10;;;;;;;;;;5056300;28;19969;-87
2022/06/09 05:50:50;;;;;;;0.10;0.10;;;;;;;;;;5036819;28;20150;-88
2022/06/09 05:53:17;;;;;;;0.10;0.10;;;;;;;;;;5050617;28;20074;-87
2022/06/09 05:55:43;;;;;;;0.10;0.10;;;;;;;;;;5073118;28;20391;-86
2022/06/09 05:58:10;;;;;;;0.20;0.20;;;;;;;;;;5039678;28;20040;-86
2022/06/09 06:00:37;;;;;;;0.00;0.00;;;;;;;;;;5033641;28;20133;-86
2022/06/09 06:03:03;;;;;;;0.10;0.10;;;;;;;;;;5024371;28;20247;-87
2022/06/09 06:08:16;;;;;;;0.10;0.10;;;;;;;;;;5053311;28;20047;-87
2022/06/09 06:10:43;;;;;;;0.10;0.10;;;;;;;;;;5035798;28;20041;-87
2022/06/09 06:13:09;;;;;;;0.10;0.10;;;;;;;;;;5037633;28;20044;-89
2022/06/09 06:15:35;;;;;;;0.00;0.00;;;;;;;;;;5023331;28;20045;-86
2022/06/09 06:18:02;;;;;;;0.10;0.10;;;;;;;;;;5034957;28;20041;-87
2022/06/09 06:20:29;;;;;;;0.10;0.10;;;;;;;;;;5051072;28;20055;-86
2022/06/09 06:22:55;;;;;;;0.00;0.00;;;;;;;;;;5034235;28;20032;-87
2022/06/09 06:25:22;;;;;;;0.03;0.03;;;;;;;;;;5039499;28;20127;-86
2022/06/09 06:27:48;;;;;;;0.10;0.10;;;;;;;;;;5033178;28;20553;-87
2022/06/09 06:30:14;;;;;;;0.00;0.00;;;;;;;;;;5031397;28;20037;-87
2022/06/09 06:32:40;;;;;;;0.10;0.10;;;;;;;;;;5038642;28;20041;-87
2022/06/09 06:35:06;;;;;;;0.00;0.00;;;;;;;;;;5037745;28;20036;-88
2022/06/09 06:37:33;;;;;;;0.15;0.15;;;;;;;;;;5045108;28;20033;-86
2022/06/09 06:39:59;;;;;;;0.00;0.00;;;;;;;;;;5053155;28;20044;-87
2022/06/09 06:42:25;;;;;;;0.10;0.10;;;;;;;;;;5040314;28;20044;-88
2022/06/09 06:44:51;;;;;;;0.17;0.17;;;;;;;;;;5035498;28;20036;-88
2022/06/09 06:47:17;;;;;;;0.10;0.10;;;;;;;;;;5039284;28;20044;-87
2022/06/09 06:49:44;;;;;;;0.03;0.03;;;;;;;;;;5056212;28;20040;-87
2022/06/09 06:52:10;;;;;;;0.10;0.10;;;;;;;;;;5038924;28;20121;-86
2022/06/09 06:54:38;;;;;;;0.13;0.13;;;;;;;;;;5037838;28;20040;-87
2022/06/09 06:57:05;;;;;;;0.00;0.00;;;;;;;;;;5039171;28;20115;-88
2022/06/09 06:59:32;;;;;;;0.10;0.10;;;;;;;;;;5042307;28;20087;-86
2022/06/09 07:01:59;;;;;;;0.10;0.10;;;;;;;;;;5032586;28;20044;-87
2022/06/09 07:04:25;;;;;;;0.05;0.05;;;;;;;;;;5035542;28;20055;-86
2022/06/09 07:06:51;;;;;;;0.10;0.10;;;;;;;;;;5034017;28;20102;-88
2022/06/09 07:09:18;;;;;;;0.10;0.10;;;;;;;;;;5024309;28;20130;-89
2022/06/09 07:11:45;;;;;;;0.00;0.00;;;;;;;;;;5014548;28;20132;-90
2022/06/09 07:14:11;;;;;;;0.10;0.10;;;;;;;;;;5026538;28;20045;-89
2022/06/09 07:16:37;;;;;;;0.10;0.10;;;;;;;;;;5035525;28;20044;-87
2022/06/09 07:19:04;;;;;;;0.20;0.20;;;;;;;;;;5034423;28;20069;-90
2022/06/09 07:21:30;;;;;;;0.03;0.03;;;;;;;;;;5021131;28;20410;-89
2022/06/09 07:23:56;;;;;;;0.10;0.10;;;;;;;;;;5037562;28;20071;-85
2022/06/09 07:26:22;;;;;;;0.10;0.10;;;;;;;;;;5031018;28;20066;-87
2022/06/09 07:28:49;;;;;;;0.10;0.10;;;;;;;;;;5035830;28;20051;-87
2022/06/09 07:31:15;;;;;;;0.10;0.10;;;;;;;;;;5036334;28;20039;-86
2022/06/09 07:33:41;;;;;;;0.00;0.00;;;;;;;;;;5033279;28;20050;-86
2022/06/09 07:36:09;;;;;;;0.03;0.03;;;;;;;;;;5009862;28;20394;-86
2022/06/09 07:38:36;;;;;;;0.10;0.10;;;;;;;;;;5035946;28;20481;-86
2022/06/09 07:41:02;;;;;;;0.05;0.05;;;;;;;;;;5032807;28;20048;-85
2022/06/09 07:43:28;;;;;;;0.10;0.10;;;;;;;;;;5054349;28;20082;-85
2022/06/09 07:45:57;;;;;;;0.00;0.00;;;;;;;;;;5030513;28;20037;-85
2022/06/09 07:48:24;;;;;;;0.03;0.03;;;;;;;;;;5053360;28;20199;-87
2022/06/09 07:51:00;;;;;;;0.10;0.10;;;;;;;;;;5038447;28;20056;-90
2022/06/09 07:53:29;;;;;;;0.00;0.00;;;;;;;;;;5056475;28;20080;-88
2022/06/09 07:55:56;;;;;;;0.10;0.10;;;;;;;;;;5036895;28;20486;-88
2022/06/09 07:58:43;;;;;;;0.20;0.20;;;;;;;;;;5038037;28;20053;-90
2022/06/09 08:01:10;;;;;;;0.10;0.10;;;;;;;;;;5056318;28;20052;-93
2022/06/09 08:03:39;;;;;;;0.10;0.10;;;;;;;;;;5039856;28;20040;-94
2022/06/09 08:06:11;;;;;;;0.00;0.00;;;;;;;;;;5044016;28;20497;-93
2022/06/09 08:08:37;;;;;;;0.20;0.20;;;;;;;;;;5044860;28;20498;-87
2022/06/09 08:11:05;;;;;;;0.20;0.20;;;;;;;;;;5042501;28;20401;-90
2022/06/09 08:13:32;;;;;;;0.10;0.10;;;;;;;;;;5041383;28;20052;-93
2022/06/09 08:16:05;;;;;;;0.17;0.17;;;;;;;;;;5040182;28;20468;-89
2022/06/09 08:18:31;;;;;;;0.10;0.10;;;;;;;;;;5039971;28;20099;-89
2022/06/09 08:20:57;;;;;;;0.10;0.10;;;;;;;;;;5044199;28;20036;-89
2022/06/09 08:23:25;;;;;;;0.10;0.10;;;;;;;;;;5062736;28;20043;-93
2022/06/09 08:26:05;;;;;;;0.00;0.00;;;;;;;;;;5042417;28;20051;-94
2022/06/09 08:28:32;;;;;;;0.10;0.10;;;;;;;;;;5033099;28;20049;-95
2022/06/09 08:30:58;;;;;;;0.10;0.10;;;;;;;;;;5034059;28;20052;-92
2022/06/09 08:33:25;;;;;;;0.10;0.10;;;;;;;;;;5040218;28;20040;-92
2022/06/09 08:35:51;;;;;;;0.00;0.00;;;;;;;;;;5047272;28;20039;-90
2022/06/09 08:38:37;;;;;;;0.10;0.10;;;;;;;;;;5043345;28;20036;-91
2022/06/09 08:41:22;;;;;;;0.10;0.10;;;;;;;;;;5051877;28;20158;-89
2022/06/09 08:44:05;;;;;;;0.00;0.00;;;;;;;;;;5042573;28;20576;-92
2022/06/09 08:46:44;;;;;;;0.03;0.03;;;;;;;;;;5024241;28;20040;-91
2022/06/09 08:49:41;;;;;;;0.10;0.10;;;;;;;;;;5040471;28;20076;-91
2022/06/09 08:52:27;;;;;;;0.10;0.10;;;;;;;;;;5046172;28;20059;-91
2022/06/09 08:54:55;;;;;;;0.10;0.10;;;;;;;;;;5032298;28;20405;-91
2022/06/09 08:57:25;;;;;;;0.08;0.08;;;;;;;;;;5033635;28;20071;-90
2022/06/09 08:59:56;;;;;;;0.10;0.10;;;;;;;;;;5044286;28;20041;-91
2022/06/09 09:02:30;;;;;;;0.00;0.00;;;;;;;;;;5041542;28;20041;-86
2022/06/09 09:05:07;;;;;;;0.10;0.10;;;;;;;;;;5054005;28;20040;-90
2022/06/09 09:07:36;;;;;;;0.00;0.00;;;;;;;;;;5036915;28;20037;-88
2022/06/09 09:10:15;;;;;;;0.00;0.00;;;;;;;;;;5037506;28;20090;-91
2022/06/09 09:12:49;;;;;;;0.10;0.10;;;;;;;;;;5057171;28;20040;-88
2022/06/09 09:15:15;;;;;;;0.10;0.10;;;;;;;;;;5055795;28;20723;-90
2022/06/09 09:17:41;;;;;;;0.15;0.15;;;;;;;;;;5036389;28;20113;-88
2022/06/09 09:20:16;;;;;;;0.10;0.10;;;;;;;;;;5036763;28;20039;-88
2022/06/09 09:23:02;;;;;;;0.00;0.00;;;;;;;;;;5057496;28;20044;-89
2022/06/09 09:25:49;;;;;;;0.00;0.00;;;;;;;;;;5060313;28;20043;-88
2022/06/09 09:28:21;;;;;;;0.00;0.00;;;;;;;;;;5041616;28;20048;-91
2022/06/09 09:30:53;;;;;;;0.00;0.00;;;;;;;;;;5039473;28;20124;-86
2022/06/09 09:33:20;;;;;;;0.10;0.10;;;;;;;;;;5040836;28;20036;-88
2022/06/09 09:35:48;;;;;;;0.08;0.08;;;;;;;;;;5047269;28;20413;-88
2022/06/09 09:38:16;;;;;;;0.10;0.10;;;;;;;;;;5042742;28;20040;-87
2022/06/09 09:40:45;;;;;;;0.10;0.10;;;;;;;;;;5041297;28;20058;-88
2022/06/09 09:43:12;;;;;;;0.03;0.03;;;;;;;;;;5058091;28;20071;-90
2022/06/09 09:45:43;;;;;;;0.17;0.17;;;;;;;;;;5041628;28;20064;-88
2022/06/09 09:48:36;;;;;;;0.30;0.30;;;;;;;;;;5042323;28;20439;-87
2022/06/09 09:51:13;;;;;;;0.00;0.00;;;;;;;;;;5043582;28;20052;-89
2022/06/09 09:53:46;;;;;;;0.10;0.10;;;;;;;;;;5021770;28;20040;-88
2022/06/09 09:56:18;;;;;;;0.00;0.00;;;;;;;;;;5030417;28;20041;-90
2022/06/09 09:58:47;;;;;;;0.10;0.10;;;;;;;;;;5040481;28;20048;-89
2022/06/09 10:01:22;;;;;;;0.10;0.10;;;;;;;;;;5056310;28;20075;-88
2022/06/09 10:09:44;;;;;;;0.10;0.10;;;;;;;;;;5056626;28;20044;-90
2022/06/09 10:12:11;;;;;;;0.10;0.10;;;;;;;;;;5040981;28;20044;-91
2022/06/09 10:14:47;;;;;;;0.00;0.00;;;;;;;;;;5040232;28;20063;-90
2022/06/09 10:17:19;;;;;;;0.00;0.00;;;;;;;;;;5040706;28;20044;-92
2022/06/09 10:19:49;;;;;;;0.10;0.10;;;;;;;;;;5056235;28;20068;-89
2022/06/09 10:22:19;;;;;;;0.10;0.10;;;;;;;;;;5039465;28;20044;-89
2022/06/09 10:25:08;;;;;;;0.10;0.10;;;;;;;;;;5041266;28;20047;-89
2022/06/09 10:27:37;;;;;;;0.10;0.10;;;;;;;;;;5047291;28;20501;-88
2022/06/09 10:30:06;;;;;;;0.00;0.00;;;;;;;;;;5033967;28;20509;-88
2022/06/09 10:32:52;;;;;;;0.13;0.13;;;;;;;;;;5040484;28;20493;-90
2022/06/09 10:35:22;;;;;;;0.10;0.10;;;;;;;;;;5057812;28;20087;-89
2022/06/09 10:37:51;;;;;;;0.00;0.00;;;;;;;;;;5043167;28;20200;-89
2022/06/09 10:40:28;;;;;;;0.05;0.05;;;;;;;;;;5042338;28;20037;-86
2022/06/09 10:43:41;;;;;;;0.10;0.10;;;;;;;;;;5074964;28;20476;-89
2022/06/09 10:46:28;;;;;;;0.00;0.00;;;;;;;;;;5040805;28;20037;-87
2022/06/09 10:57:41;;;;;;;0.00;0.00;;;;;;;;;;5062798;28;20145;-87
2022/06/09 11:00:16;;;;;;;0.00;0.00;;;;;;;;;;5041180;28;20083;-84
2022/06/09 11:02:46;;;;;;;0.10;0.10;;;;;;;;;;5041172;28;20046;-94
2022/06/09 11:05:14;;;;;;;0.00;0.00;;;;;;;;;;5042969;28;20036;-91
2022/06/09 11:07:40;;;;;;;0.00;0.00;;;;;;;;;;5047552;28;20048;-93
2022/06/09 11:10:20;;;;;;;0.00;0.00;;;;;;;;;;5046185;28;20039;-94
2022/06/09 11:12:56;;;;;;;0.00;0.00;;;;;;;;;;5047890;28;20052;-91
2022/06/09 11:15:22;;;;;;;0.10;0.10;;;;;;;;;;5045612;28;20127;-90
2022/06/09 11:17:51;;;;;;;0.08;0.08;;;;;;;;;;5050013;28;20044;-92
2022/06/09 11:20:24;;;;;;;0.00;0.00;;;;;;;;;;5047733;28;20041;-92
2022/06/09 11:22:53;;;;;;;0.00;0.00;;;;;;;;;;5045018;28;20075;-92
2022/06/09 11:25:22;;;;;;;0.20;0.20;;;;;;;;;;5027457;28;20071;-92
2022/06/09 11:27:51;;;;;;;0.10;0.10;;;;;;;;;;5048400;28;20037;-94
2022/06/09 11:30:30;;;;;;;0.10;0.10;;;;;;;;;;5052145;28;20032;-93
2022/06/09 11:33:07;;;;;;;0.10;0.10;;;;;;;;;;5061767;28;20482;-96
2022/06/09 11:35:33;;;;;;;0.00;0.00;;;;;;;;;;5044336;28;20129;-96
2022/06/09 11:38:15;;;;;;;0.10;0.10;;;;;;;;;;5038827;28;20029;-95
2022/06/09 11:40:48;;;;;;;0.08;0.08;;;;;;;;;;5031481;28;20551;-96
2022/06/09 11:43:31;;;;;;;0.10;0.10;;;;;;;;;;5045627;28;20119;-96
2022/06/09 11:46:00;;;;;;;0.00;0.00;;;;;;;;;;5048929;28;20096;-93
2022/06/09 11:48:40;;;;;;;0.00;0.00;;;;;;;;;;5048800;28;20048;-96
2022/06/09 11:51:10;;;;;;;0.10;0.10;;;;;;;;;;5052928;28;20044;-95
2022/06/09 11:53:39;;;;;;;0.05;0.05;;;;;;;;;;5064431;28;20048;-94
2022/06/09 11:56:44;;;;;;;0.00;0.00;;;;;;;;;;5050905;28;20138;-95
2022/06/09 11:59:19;;;;;;;0.00;0.00;;;;;;;;;;5051084;28;20041;-94
2022/06/09 12:02:00;;;;;;;0.10;0.10;;;;;;;;;;5033250;28;20076;-94
2022/06/09 12:04:45;;;;;;;0.08;0.08;;;;;;;;;;5027616;28;20044;-96
2022/06/09 12:07:24;;;;;;;0.00;0.00;;;;;;;;;;5035381;28;20040;-94
2022/06/09 12:10:00;;;;;;;0.10;0.10;;;;;;;;;;5050561;28;20064;-96
2022/06/09 12:12:29;;;;;;;0.10;0.10;;;;;;;;;;5051010;28;20508;-95
2022/06/09 12:15:13;;;;;;;0.10;0.10;;;;;;;;;;5049576;28;20122;-94
2022/06/09 12:18:07;;;;;;;0.08;0.08;;;;;;;;;;5071691;28;20052;-95
2022/06/09 12:20:49;;;;;;;0.10;0.10;;;;;;;;;;5054725;28;20157;-95
2022/06/09 12:23:38;;;;;;;0.10;0.10;;;;;;;;;;5053461;28;20044;-95
2022/06/09 12:26:24;;;;;;;0.10;0.10;;;;;;;;;;5054371;28;20045;-95
2022/06/09 12:28:56;;;;;;;0.17;0.17;;;;;;;;;;5055413;28;20401;-96
2022/06/09 12:31:23;;;;;;;0.00;0.00;;;;;;;;;;5057809;28;20066;-96
2022/06/09 12:34:06;;;;;;;0.10;0.10;;;;;;;;;;5056234;28;20051;-96
2022/06/09 12:36:48;;;;;;;0.10;0.10;;;;;;;;;;5039247;28;20048;-94
2022/06/09 12:39:22;;;;;;;0.10;0.10;;;;;;;;;;5054202;28;20048;-95
2022/06/09 12:41:52;;;;;;;0.00;0.00;;;;;;;;;;5053585;28;20052;-93
2022/06/09 12:44:26;;;;;;;0.03;0.03;;;;;;;;;;5055825;28;20047;-95
2022/06/09 12:46:56;;;;;;;0.05;0.05;;;;;;;;;;5054501;28;20040;-96
2022/06/09 12:49:27;;;;;;;0.10;0.10;;;;;;;;;;5054416;28;20044;-95
2022/06/09 12:51:53;;;;;;;0.10;0.10;;;;;;;;;;5054782;28;20024;-95
2022/06/09 12:54:22;;;;;;;0.08;0.08;;;;;;;;;;5052307;28;20114;-91
2022/06/09 12:56:59;;;;;;;0.03;0.03;;;;;;;;;;5036486;28;20515;-96
2022/06/09 12:59:28;;;;;;;0.10;0.10;;;;;;;;;;5057507;28;20055;-93
2022/06/09 13:01:56;;;;;;;0.10;0.10;;;;;;;;;;5042690;28;20063;-94
2022/06/09 13:04:24;;;;;;;0.05;0.05;;;;;;;;;;5030166;28;20102;-96
2022/06/09 13:06:50;;;;;;;0.05;0.05;;;;;;;;;;5040797;28;20044;-96
2022/06/09 13:09:16;;;;;;;0.10;0.10;;;;;;;;;;5051873;28;20092;-91
2022/06/09 13:14:30;;;;;;;0.05;0.05;;;;;;;;;;5065862;28;20197;-93
2022/06/09 13:16:58;;;;;;;0.03;0.03;;;;;;;;;;5050834;28;20037;-94
2022/06/09 13:19:26;;;;;;;0.00;0.00;;;;;;;;;;5050199;28;20046;-94
2022/06/09 13:21:53;;;;;;;0.00;0.00;;;;;;;;;;5053158;28;20515;-94
2022/06/09 13:24:36;;;;;;;0.17;0.17;;;;;;;;;;5052141;28;20448;-94
2022/06/09 13:27:04;;;;;;;0.00;0.00;;;;;;;;;;5068211;28;20097;-95
2022/06/09 13:29:33;;;;;;;0.00;0.00;;;;;;;;;;5055597;28;20113;-96
2022/06/09 13:32:19;;;;;;;0.17;0.17;;;;;;;;;;5050927;28;20040;-94
2022/06/09 13:34:47;;;;;;;0.00;0.00;;;;;;;;;;5052786;28;20048;-92
2022/06/09 13:37:15;;;;;;;0.00;0.00;;;;;;;;;;5035536;28;20115;-93
2022/06/09 13:39:54;;;;;;;0.20;0.20;;;;;;;;;;5051009;28;20051;-94
2022/06/09 13:42:23;;;;;;;0.00;0.00;;;;;;;;;;5053085;28;20033;-94
2022/06/09 13:45:16;;;;;;;0.00;0.00;;;;;;;;;;5067843;28;20099;-95
2022/06/09 13:48:07;;;;;;;0.00;0.00;;;;;;;;;;5078504;28;20036;-96
2022/06/09 13:50:36;;;;;;;0.00;0.00;;;;;;;;;;5045664;28;20043;-96
2022/06/09 13:53:24;;;;;;;0.00;0.00;;;;;;;;;;5054192;28;20159;-96
2022/06/09 13:55:51;;;;;;;0.00;0.00;;;;;;;;;;5051261;28;20485;-94
2022/06/09 13:58:17;;;;;;;0.03;0.03;;;;;;;;;;5051122;28;20115;-94
2022/06/09 14:00:46;;;;;;;0.03;0.03;;;;;;;;;;5050427;28;20040;-96
2022/06/09 14:03:17;;;;;;;0.10;0.10;;;;;;;;;;5051103;28;20043;-95
2022/06/09 14:05:50;;;;;;;0.03;0.03;;;;;;;;;;5052846;28;20037;-96
2022/06/09 14:08:16;;;;;;;0.00;0.00;;;;;;;;;;5029032;28;20127;-94
2022/06/09 14:10:42;;;;;;;0.10;0.10;;;;;;;;;;5035122;28;20474;-94
2022/06/09 14:13:08;;;;;;;0.10;0.10;;;;;;;;;;5046854;28;20486;-95
2022/06/09 14:15:35;;;;;;;0.00;0.00;;;;;;;;;;5048046;28;20033;-94
2022/06/09 14:18:02;;;;;;;0.10;0.10;;;;;;;;;;5046942;28;20107;-96
2022/06/09 14:20:30;;;;;;;0.10;0.10;;;;;;;;;;5048534;28;20036;-92
2022/06/09 14:22:56;;;;;;;0.00;0.00;;;;;;;;;;5050332;28;20495;-92
2022/06/09 14:25:23;;;;;;;0.10;0.10;;;;;;;;;;5051787;28;20041;-91
2022/06/09 14:27:50;;;;;;;0.00;0.00;;;;;;;;;;5048814;28;20033;-94
2022/06/09 14:30:17;;;;;;;0.00;0.00;;;;;;;;;;5048116;28;20113;-94
2022/06/09 14:32:44;;;;;;;0.00;0.00;;;;;;;;;;5049616;28;20047;-92
2022/06/09 14:35:16;;;;;;;0.03;0.03;;;;;;;;;;5044179;28;20577;-95
2022/06/09 14:37:43;;;;;;;0.10;0.10;;;;;;;;;;5056342;28;20497;-94
2022/06/09 14:40:27;;;;;;;0.10;0.10;;;;;;;;;;5065935;28;20076;-96
2022/06/09 14:43:03;;;;;;;0.00;0.00;;;;;;;;;;5067057;28;20048;-94
2022/06/09 14:45:30;;;;;;;0.00;0.00;;;;;;;;;;5084050;28;20048;-91
2022/06/09 14:47:57;;;;;;;0.00;0.00;;;;;;;;;;5081184;28;20051;-94
2022/06/09 14:50:24;;;;;;;0.08;0.08;;;;;;;;;;5071628;28;20025;-95
2022/06/09 14:52:51;;;;;;;0.08;0.08;;;;;;;;;;5070991;28;20070;-96
2022/06/09 14:55:18;;;;;;;0.10;0.10;;;;;;;;;;5061557;28;20037;-96
2022/06/09 14:57:44;;;;;;;0.00;0.00;;;;;;;;;;5048761;28;20071;-91
2022/06/09 15:00:24;;;;;;;0.00;0.00;;;;;;;;;;5048033;28;20567;-92
2022/06/09 15:02:50;;;;;;;0.10;0.10;;;;;;;;;;5052248;28;20132;-92
2022/06/09 15:05:17;;;;;;;0.08;0.08;;;;;;;;;;5050554;28;20513;-95
2022/06/09 15:07:48;;;;;;;0.10;0.10;;;;;;;;;;5048603;28;20067;-94
2022/06/09 15:10:38;;;;;;;0.05;0.05;;;;;;;;;;5042394;28;20047;-93
2022/06/09 15:13:06;;;;;;;0.00;0.00;;;;;;;;;;5066131;28;20044;-91
2022/06/09 15:15:33;;;;;;;0.00;0.00;;;;;;;;;;5062488;28;20072;-91
2022/06/09 15:17:59;;;;;;;0.10;0.10;;;;;;;;;;5043108;28;20040;-91
2022/06/09 15:20:29;;;;;;;0.10;0.10;;;;;;;;;;5061570;28;20048;-92
2022/06/09 15:22:55;;;;;;;0.00;0.00;;;;;;;;;;5046880;28;20037;-90
2022/06/09 15:25:22;;;;;;;0.00;0.00;;;;;;;;;;5049691;28;20079;-94
2022/06/09 15:27:50;;;;;;;0.10;0.10;;;;;;;;;;5049711;28;20102;-93
2022/06/09 15:30:19;;;;;;;0.10;0.10;;;;;;;;;;5050590;28;20049;-95